createdAt,value
2019-04-22T00:00:28.948Z,16.43
2019-04-22T00:01:25.944Z,16.47
2019-04-22T00:02:22.690Z,16.49
2019-04-22T00:03:33.111Z,16.50
2019-04-22T00:04:36.974Z,16.47
2019-04-22T00:05:42.802Z,16.47
2019-04-22T00:06:44.414Z,16.41
2019-04-22T00:07:53.352Z,16.29
2019-04-22T00:08:50.650Z,16.32
2019-04-22T00:09:51.525Z,16.38
2019-04-22T00:10:47.153Z,16.43
2019-04-22T00:11:59.938Z,16.33
2019-04-22T00:12:47.091Z,16.32
2019-04-22T00:14:00.947Z,16.31
2019-04-22T00:14:42.295Z,16.31
2019-04-22T00:15:41.740Z,16.32
2019-04-22T00:16:58.625Z,16.31
2019-04-22T00:17:58.858Z,16.26
2019-04-22T00:19:01.754Z,16.31
2019-04-22T00:19:52.328Z,16.23
2019-04-22T00:20:54.460Z,16.23
2019-04-22T00:21:48.601Z,16.23
2019-04-22T00:22:47.991Z,16.15
2019-04-22T00:23:49.576Z,16.24
2019-04-22T00:24:48.136Z,16.13
2019-04-22T00:25:48.259Z,16.12
2019-04-22T00:26:51.818Z,16.16
2019-04-22T00:27:47.913Z,16.20
2019-04-22T00:28:49.721Z,16.05
2019-04-22T00:30:05.356Z,16.08
2019-04-22T00:30:47.163Z,16.12
2019-04-22T00:31:45.935Z,16.16
2019-04-22T00:32:41.815Z,16.04
2019-04-22T00:33:45.541Z,16.09
2019-04-22T00:34:42.589Z,16.04
2019-04-22T00:35:45.428Z,16.04
2019-04-22T00:36:42.013Z,16.04
2019-04-22T00:37:53.270Z,16.00
2019-04-22T00:38:44.340Z,16.08
2019-04-22T00:39:46.636Z,15.97
2019-04-22T00:40:44.972Z,16.02
2019-04-22T00:41:53.082Z,15.98
2019-04-22T00:42:46.939Z,16.02
2019-04-22T00:43:48.129Z,15.95
2019-04-22T00:44:45.207Z,15.92
2019-04-22T00:45:43.822Z,15.91
2019-04-22T00:46:48.755Z,15.94
2019-04-22T00:47:43.413Z,15.86
2019-04-22T00:48:53.445Z,15.83
2019-04-22T00:50:14.462Z,15.79
2019-04-22T00:50:55.185Z,15.80
2019-04-22T00:51:52.419Z,15.76
2019-04-22T00:52:47.435Z,15.62
2019-04-22T00:53:48.200Z,15.67
2019-04-22T00:54:49.679Z,15.59
2019-04-22T00:55:46.308Z,15.57
2019-04-22T00:56:43.158Z,15.39
2019-04-22T00:57:46.527Z,15.42
2019-04-22T00:59:50.306Z,15.33
2019-04-22T01:00:45.470Z,15.37
2019-04-22T01:01:42.959Z,15.37
2019-04-22T01:02:48.030Z,15.33
2019-04-22T01:03:50.444Z,15.37
2019-04-22T01:04:45.978Z,15.22
2019-04-22T01:05:46.870Z,15.28
2019-04-22T01:06:44.331Z,15.29
2019-04-22T01:07:45.006Z,15.33
2019-04-22T01:08:53.461Z,15.24
2019-04-22T01:10:50.378Z,15.24
2019-04-22T01:11:47.113Z,15.21
2019-04-22T01:12:44.341Z,15.24
2019-04-22T01:13:44.294Z,15.15
2019-04-22T01:14:41.721Z,15.24
2019-04-22T01:16:04.546Z,15.22
2019-04-22T01:16:43.096Z,15.15
2019-04-22T01:17:46.037Z,15.14
2019-04-22T01:18:46.204Z,14.79
2019-04-22T01:19:52.961Z,14.53
2019-04-22T01:22:38.266Z,13.86
2019-04-22T01:23:43.824Z,13.87
2019-04-22T01:24:38.741Z,13.63
2019-04-22T01:25:41.045Z,13.63
2019-04-22T01:26:36.233Z,13.62
2019-04-22T01:27:34.965Z,13.62
2019-04-22T01:28:34.193Z,13.60
2019-04-22T01:29:32.147Z,13.57
2019-04-22T01:30:30.320Z,13.63
2019-04-22T01:31:23.959Z,13.59
2019-04-22T01:32:30.315Z,13.56
2019-04-22T01:33:24.068Z,13.65
2019-04-22T01:34:33.447Z,13.70
2019-04-22T01:35:35.110Z,13.65
2019-04-22T01:36:33.925Z,13.67
2019-04-22T01:37:39.011Z,13.53
2019-04-22T01:38:36.684Z,13.46
2019-04-22T01:39:46.991Z,13.35
2019-04-22T01:40:45.732Z,13.33
2019-04-22T01:42:02.087Z,13.20
2019-04-22T01:42:53.662Z,13.20
2019-04-22T01:43:52.195Z,13.22
2019-04-22T01:44:45.352Z,13.18
2019-04-22T01:45:45.028Z,13.19
2019-04-22T01:46:49.417Z,13.28
2019-04-22T01:47:46.770Z,13.33
2019-04-22T01:48:47.274Z,13.31
2019-04-22T01:49:46.387Z,13.52
2019-04-22T01:50:46.160Z,13.62
2019-04-22T01:51:58.689Z,13.68
2019-04-22T01:52:47.284Z,13.72
2019-04-22T01:53:56.551Z,13.78
2019-04-22T01:55:46.815Z,13.97
2019-04-22T01:56:46.973Z,13.89
2019-04-22T01:57:41.514Z,13.78
2019-04-22T01:58:38.240Z,13.72
2019-04-22T01:59:35.522Z,13.57
2019-04-22T02:00:51.208Z,13.47
2019-04-22T02:01:53.433Z,13.37
2019-04-22T02:02:43.969Z,13.31
2019-04-22T02:03:46.499Z,13.25
2019-04-22T02:04:44.458Z,13.13
2019-04-22T02:05:44.149Z,13.12
2019-04-22T02:06:43.605Z,13.15
2019-04-22T02:07:42.130Z,13.16
2019-04-22T02:08:58.854Z,13.20
2019-04-22T02:09:45.137Z,13.13
2019-04-22T02:10:49.296Z,13.15
2019-04-22T02:11:47.241Z,13.15
2019-04-22T02:12:45.467Z,13.31
2019-04-22T02:13:42.830Z,13.15
2019-04-22T02:14:44.285Z,13.20
2019-04-22T02:15:47.820Z,13.33
2019-04-22T02:16:50.036Z,13.39
2019-04-22T02:17:46.109Z,13.50
2019-04-22T02:18:50.286Z,13.53
2019-04-22T02:19:45.644Z,13.60
2019-04-22T02:20:45.480Z,13.68
2019-04-22T02:21:43.516Z,13.72
2019-04-22T02:23:00.413Z,13.81
2019-04-22T02:24:43.904Z,13.89
2019-04-22T02:25:49.504Z,13.96
2019-04-22T02:26:41.975Z,14.00
2019-04-22T02:27:47.140Z,14.03
2019-04-22T02:28:39.974Z,14.08
2019-04-22T02:29:52.342Z,14.10
2019-04-22T02:31:04.968Z,14.14
2019-04-22T02:31:55.970Z,14.07
2019-04-22T02:33:06.062Z,14.08
2019-04-22T02:36:12.671Z,14.05
2019-04-22T02:36:45.115Z,14.11
2019-04-22T02:37:48.033Z,14.08
2019-04-22T02:38:58.844Z,14.07
2019-04-22T02:39:48.757Z,14.05
2019-04-22T02:41:09.117Z,14.14
2019-04-22T02:42:09.543Z,14.05
2019-04-22T02:42:51.826Z,14.11
2019-04-22T02:43:59.494Z,14.15
2019-04-22T02:44:46.763Z,14.04
2019-04-22T02:46:02.993Z,14.14
2019-04-22T02:47:47.608Z,14.18
2019-04-22T02:50:02.004Z,14.15
2019-04-22T02:50:54.843Z,14.18
2019-04-22T02:51:40.314Z,14.14
2019-04-22T02:53:05.861Z,14.20
2019-04-22T02:54:52.582Z,14.18
2019-04-22T02:55:49.289Z,14.08
2019-04-22T02:56:48.252Z,14.12
2019-04-22T02:57:49.430Z,14.05
2019-04-22T02:59:49.578Z,14.10
2019-04-22T03:00:58.383Z,14.11
2019-04-22T03:01:47.391Z,14.07
2019-04-22T03:04:06.954Z,14.08
2019-04-22T03:04:49.143Z,14.03
2019-04-22T03:05:55.588Z,14.10
2019-04-22T03:06:38.351Z,14.05
2019-04-22T03:07:54.365Z,14.04
2019-04-22T03:08:51.711Z,14.11
2019-04-22T03:09:48.830Z,14.03
2019-04-22T03:12:44.678Z,13.92
2019-04-22T03:14:51.858Z,13.93
2019-04-22T03:15:56.825Z,13.89
2019-04-22T03:17:43.906Z,13.92
2019-04-22T03:20:02.307Z,13.97
2019-04-22T03:20:50.168Z,13.93
2019-04-22T03:21:51.821Z,13.96
2019-04-22T03:22:57.888Z,13.97
2019-04-22T03:37:55.914Z,12.00
2019-04-22T03:41:05.537Z,11.87
2019-04-22T03:43:02.439Z,12.02
2019-04-22T03:45:17.931Z,11.86
2019-04-22T03:46:06.225Z,11.80
2019-04-22T03:48:04.568Z,11.87
2019-04-22T03:50:22.676Z,12.02
2019-04-22T03:51:11.464Z,11.97
2019-04-22T03:52:16.245Z,12.09
2019-04-22T03:54:16.790Z,12.07
2019-04-22T03:55:16.212Z,12.12
2019-04-22T03:56:04.028Z,12.10
2019-04-22T03:58:11.116Z,12.25
2019-04-22T03:59:09.768Z,12.18
2019-04-22T04:02:10.669Z,12.27
2019-04-22T04:03:09.476Z,12.35
2019-04-22T04:04:09.285Z,12.31
2019-04-22T04:04:59.137Z,12.40
2019-04-22T04:05:59.573Z,12.47
2019-04-22T04:07:14.943Z,12.47
2019-04-22T04:09:09.007Z,12.40
2019-04-22T04:10:13.000Z,12.42
2019-04-22T04:12:03.949Z,12.46
2019-04-22T04:15:57.649Z,12.60
2019-04-22T04:17:02.173Z,12.67
2019-04-22T04:17:55.074Z,12.67
2019-04-22T04:19:07.849Z,12.80
2019-04-22T04:21:14.508Z,12.83
2019-04-22T04:23:09.874Z,12.97
2019-04-22T04:24:12.756Z,13.01
2019-04-22T04:25:25.029Z,13.08
2019-04-22T04:26:00.913Z,13.09
2019-04-22T04:27:28.518Z,13.12
2019-04-22T04:29:22.600Z,13.13
2019-04-22T04:30:59.935Z,13.12
2019-04-22T04:31:00.612Z,13.05
2019-04-22T04:32:18.758Z,13.16
2019-04-22T04:34:06.389Z,13.18
2019-04-22T04:37:07.295Z,13.15
2019-04-22T04:37:56.037Z,13.13
2019-04-22T04:39:00.006Z,13.20
2019-04-22T04:41:01.355Z,13.37
2019-04-22T04:43:07.606Z,13.39
2019-04-22T04:47:11.594Z,13.60
2019-04-22T04:48:00.435Z,13.63
2019-04-22T04:49:08.994Z,13.65
2019-04-22T04:52:13.594Z,13.78
2019-04-22T04:54:19.081Z,13.87
2019-04-22T04:55:18.085Z,13.93
2019-04-22T04:56:11.628Z,14.03
2019-04-22T04:57:11.719Z,14.10
2019-04-22T04:58:18.105Z,14.08
2019-04-22T05:00:32.589Z,14.07
2019-04-22T05:01:08.014Z,14.12
2019-04-22T05:02:17.532Z,14.28
2019-04-22T05:04:14.187Z,14.26
2019-04-22T05:06:05.556Z,14.25
2019-04-22T05:07:14.784Z,14.32
2019-04-22T05:08:34.973Z,14.36
2019-04-22T05:10:13.792Z,14.35
2019-04-22T05:11:11.317Z,14.32
2019-04-22T05:12:14.808Z,14.33
2019-04-22T05:14:07.153Z,14.20
2019-04-22T05:15:09.114Z,14.22
2019-04-22T05:16:17.612Z,14.23
2019-04-22T05:17:02.258Z,14.20
2019-04-22T05:18:06.057Z,14.18
2019-04-22T05:20:06.644Z,14.03
2019-04-22T05:21:09.811Z,13.95
2019-04-22T05:22:07.813Z,13.87
2019-04-22T05:23:00.985Z,13.83
2019-04-22T05:24:02.467Z,13.78
2019-04-22T05:25:04.723Z,13.81
2019-04-22T05:26:05.839Z,13.79
2019-04-22T05:27:11.289Z,13.81
2019-04-22T05:28:02.572Z,13.79
2019-04-22T05:28:57.913Z,13.78
2019-04-22T05:30:23.558Z,13.71
2019-04-22T05:31:03.393Z,13.63
2019-04-22T05:31:59.705Z,13.57
2019-04-22T05:32:54.161Z,13.54
2019-04-22T05:33:56.760Z,13.56
2019-04-22T05:34:59.991Z,13.56
2019-04-22T05:36:01.611Z,13.63
2019-04-22T05:37:01.177Z,13.56
2019-04-22T05:38:02.772Z,13.41
2019-04-22T05:39:01.841Z,13.46
2019-04-22T05:39:58.752Z,13.54
2019-04-22T05:40:56.448Z,13.53
2019-04-22T05:41:54.731Z,13.46
2019-04-22T05:42:55.990Z,13.59
2019-04-22T05:44:00.503Z,13.63
2019-04-22T05:44:56.610Z,13.63
2019-04-22T05:45:59.275Z,13.68
2019-04-22T05:46:53.010Z,13.75
2019-04-22T05:47:57.855Z,13.83
2019-04-22T05:49:03.273Z,13.81
2019-04-22T05:49:55.268Z,13.78
2019-04-22T05:50:59.435Z,13.97
2019-04-22T05:51:54.620Z,13.93
2019-04-22T05:52:57.297Z,14.04
2019-04-22T05:53:47.562Z,14.23
2019-04-22T05:54:55.260Z,14.22
2019-04-22T05:55:56.911Z,14.28
2019-04-22T05:56:51.338Z,14.36
2019-04-22T05:57:57.809Z,14.43
2019-04-22T05:58:58.313Z,14.48
2019-04-22T06:00:01.234Z,14.36
2019-04-22T06:01:23.533Z,14.45
2019-04-22T06:02:56.942Z,14.65
2019-04-22T06:03:59.213Z,14.60
2019-04-22T06:04:59.838Z,14.78
2019-04-22T06:05:54.779Z,14.86
2019-04-22T06:06:53.789Z,15.00
2019-04-22T06:07:58.705Z,15.15
2019-04-22T06:09:00.505Z,15.21
2019-04-22T06:09:59.443Z,15.40
2019-04-22T06:11:01.473Z,15.46
2019-04-22T06:11:51.520Z,15.58
2019-04-22T06:12:55.288Z,15.57
2019-04-22T06:13:51.654Z,15.67
2019-04-22T06:14:55.693Z,15.76
2019-04-22T06:15:55.648Z,15.75
2019-04-22T06:16:57.230Z,15.95
2019-04-22T06:18:02.225Z,15.90
2019-04-22T06:18:58.363Z,16.00
2019-04-22T06:20:59.375Z,16.12
2019-04-22T06:22:02.958Z,16.13
2019-04-22T06:22:57.125Z,16.28
2019-04-22T06:24:55.370Z,16.33
2019-04-22T06:27:06.382Z,16.32
2019-04-22T06:27:53.862Z,16.41
2019-04-22T06:28:54.752Z,16.39
2019-04-22T06:30:01.842Z,16.38
2019-04-22T06:30:57.594Z,16.47
2019-04-22T06:32:17.566Z,16.43
2019-04-22T06:33:00.857Z,16.50
2019-04-22T06:34:02.258Z,16.49
2019-04-22T06:35:00.434Z,16.43
2019-04-22T06:35:57.053Z,16.41
2019-04-22T06:37:05.660Z,16.42
2019-04-22T06:38:22.832Z,16.46
2019-04-22T06:38:55.273Z,16.43
2019-04-22T06:39:50.605Z,16.50
2019-04-22T06:40:55.254Z,16.57
2019-04-22T06:41:59.127Z,16.58
2019-04-22T06:42:57.626Z,16.61
2019-04-22T06:44:01.999Z,16.65
2019-04-22T06:44:59.951Z,16.66
2019-04-22T06:45:51.796Z,16.83
2019-04-22T06:46:52.468Z,16.81
2019-04-22T06:48:12.794Z,16.86
2019-04-22T06:48:55.152Z,16.93
2019-04-22T06:49:55.675Z,16.93
2019-04-22T06:50:52.904Z,17.04
2019-04-22T06:51:55.732Z,17.09
2019-04-22T06:52:56.903Z,16.97
2019-04-22T06:53:55.927Z,17.08
2019-04-22T06:54:54.743Z,17.11
2019-04-22T06:55:51.462Z,17.11
2019-04-22T06:56:54.708Z,17.15
2019-04-22T06:57:51.205Z,17.26
2019-04-22T06:58:52.263Z,17.24
2019-04-22T07:00:02.471Z,17.27
2019-04-22T07:00:55.537Z,17.27
2019-04-22T07:01:59.343Z,17.41
2019-04-22T07:03:54.140Z,17.44
2019-04-22T07:04:56.796Z,17.44
2019-04-22T07:05:53.985Z,17.49
2019-04-22T07:06:56.800Z,17.59
2019-04-22T07:07:53.714Z,17.63
2019-04-22T07:09:14.282Z,17.64
2019-04-22T07:09:59.993Z,17.63
2019-04-22T07:10:51.887Z,17.63
2019-04-22T07:11:51.539Z,17.63
2019-04-22T07:12:56.636Z,17.64
2019-04-22T07:14:00.173Z,17.68
2019-04-22T07:14:59.608Z,17.80
2019-04-22T07:16:04.023Z,17.79
2019-04-22T07:16:54.299Z,17.87
2019-04-22T07:17:58.413Z,17.87
2019-04-22T07:19:12.293Z,17.89
2019-04-22T07:19:52.804Z,17.85
2019-04-22T07:20:57.878Z,17.94
2019-04-22T07:21:50.086Z,17.95
2019-04-22T07:22:51.576Z,17.98
2019-04-22T07:24:03.034Z,18.01
2019-04-22T07:24:55.825Z,18.03
2019-04-22T07:25:52.432Z,18.07
2019-04-22T07:26:54.391Z,18.10
2019-04-22T07:27:52.761Z,18.15
2019-04-22T07:28:50.849Z,18.23
2019-04-22T07:29:58.199Z,18.31
2019-04-22T07:30:53.059Z,18.38
2019-04-22T07:31:55.742Z,18.37
2019-04-22T07:33:12.731Z,18.52
2019-04-22T07:33:51.964Z,18.56
2019-04-22T07:34:51.915Z,18.60
2019-04-22T07:36:18.174Z,18.73
2019-04-22T07:36:58.756Z,18.78
2019-04-22T07:37:51.610Z,18.71
2019-04-22T07:38:48.650Z,18.86
2019-04-22T07:39:55.207Z,18.78
2019-04-22T07:40:51.992Z,18.90
2019-04-22T07:41:50.863Z,18.73
2019-04-22T07:42:49.351Z,18.78
2019-04-22T07:44:07.411Z,18.59
2019-04-22T07:45:56.491Z,18.59
2019-04-22T07:46:59.393Z,18.63
2019-04-22T07:47:52.191Z,18.66
2019-04-22T07:48:51.863Z,18.74
2019-04-22T07:49:52.918Z,18.77
2019-04-22T07:50:55.730Z,18.65
2019-04-22T07:51:54.246Z,18.77
2019-04-22T07:52:51.402Z,18.73
2019-04-22T07:53:52.294Z,18.75
2019-04-22T07:54:52.438Z,18.77
2019-04-22T07:55:54.988Z,18.75
2019-04-22T07:56:51.854Z,18.77
2019-04-22T07:57:52.383Z,18.77
2019-04-22T07:58:49.072Z,18.81
2019-04-22T08:00:01.028Z,18.83
2019-04-22T08:00:57.677Z,18.78
2019-04-22T08:01:48.446Z,18.86
2019-04-22T08:02:59.156Z,18.92
2019-04-22T08:04:05.235Z,19.08
2019-04-22T08:05:05.100Z,18.92
2019-04-22T08:05:58.864Z,18.99
2019-04-22T08:07:53.510Z,19.09
2019-04-22T08:08:58.375Z,19.15
2019-04-22T08:10:00.353Z,19.19
2019-04-22T08:12:12.005Z,19.21
2019-04-22T08:12:51.826Z,19.26
2019-04-22T08:13:46.997Z,19.26
2019-04-22T08:14:52.393Z,19.27
2019-04-22T08:15:55.421Z,19.27
2019-04-22T08:16:51.334Z,19.39
2019-04-22T08:18:47.320Z,19.48
2019-04-22T08:19:57.435Z,19.59
2019-04-22T08:20:56.714Z,19.58
2019-04-22T08:21:53.551Z,19.55
2019-04-22T08:23:50.868Z,19.63
2019-04-22T08:25:47.449Z,19.74
2019-04-22T08:26:56.069Z,19.71
2019-04-22T08:27:55.048Z,19.84
2019-04-22T08:28:51.759Z,19.73
2019-04-22T08:30:04.637Z,19.74
2019-04-22T08:30:53.615Z,19.73
2019-04-22T08:31:55.255Z,19.82
2019-04-22T08:32:55.953Z,19.77
2019-04-22T08:34:06.377Z,19.81
2019-04-22T08:34:47.231Z,19.82
2019-04-22T08:37:22.826Z,19.95
2019-04-22T08:37:51.212Z,20.07
2019-04-22T08:38:52.865Z,20.04
2019-04-22T08:39:52.153Z,20.10
2019-04-22T08:40:56.867Z,20.13
2019-04-22T08:41:43.509Z,20.11
2019-04-22T08:42:58.388Z,20.16
2019-04-22T08:43:57.842Z,20.28
2019-04-22T08:45:07.995Z,20.28
2019-04-22T08:45:51.453Z,20.40
2019-04-22T08:46:57.502Z,20.48
2019-04-22T08:47:51.248Z,20.43
2019-04-22T08:49:04.488Z,20.39
2019-04-22T08:49:57.094Z,20.40
2019-04-22T08:50:52.837Z,20.43
2019-04-22T08:51:49.085Z,20.51
2019-04-22T08:52:48.150Z,20.51
2019-04-22T08:53:57.514Z,20.43
2019-04-22T08:54:51.300Z,20.55
2019-04-22T08:55:56.051Z,20.67
2019-04-22T08:58:13.019Z,20.74
2019-04-22T08:59:00.028Z,20.65
2019-04-22T08:59:48.994Z,20.67
2019-04-22T09:01:46.300Z,20.78
2019-04-22T09:02:55.501Z,20.72
2019-04-22T09:03:52.722Z,20.88
2019-04-22T09:04:49.455Z,20.87
2019-04-22T09:07:12.718Z,20.96
2019-04-22T09:08:09.346Z,20.85
2019-04-22T09:08:55.214Z,20.92
2019-04-22T09:09:50.629Z,20.99
2019-04-22T09:10:50.326Z,21.03
2019-04-22T09:11:57.741Z,21.03
2019-04-22T09:12:57.751Z,21.11
2019-04-22T09:13:50.547Z,21.07
2019-04-22T09:14:45.713Z,21.30
2019-04-22T09:15:49.104Z,21.18
2019-04-22T09:16:48.599Z,21.20
2019-04-22T09:18:51.930Z,21.22
2019-04-22T09:19:47.775Z,21.15
2019-04-22T09:20:57.227Z,21.24
2019-04-22T09:21:57.542Z,21.21
2019-04-22T09:22:59.112Z,21.29
2019-04-22T09:23:57.171Z,21.24
2019-04-22T09:24:48.942Z,21.29
2019-04-22T09:25:48.473Z,21.24
2019-04-22T09:26:47.464Z,21.40
2019-04-22T09:27:49.854Z,21.45
2019-04-22T09:28:50.924Z,21.42
2019-04-22T09:31:57.350Z,21.70
2019-04-22T09:32:56.363Z,21.46
2019-04-22T09:34:01.505Z,21.58
2019-04-22T09:34:47.647Z,21.58
2019-04-22T09:35:52.407Z,21.66
2019-04-22T09:36:50.243Z,21.45
2019-04-22T09:53:14.855Z,21.67
2019-04-22T09:54:20.097Z,21.69
2019-04-22T09:55:15.513Z,21.75
2019-04-22T09:56:03.867Z,21.64
2019-04-22T09:57:02.167Z,21.61
2019-04-22T09:58:03.189Z,21.60
2019-04-22T09:59:05.546Z,21.58
2019-04-22T10:01:13.227Z,21.66
2019-04-22T10:02:22.019Z,21.57
2019-04-22T10:03:10.035Z,21.76
2019-04-22T10:05:07.844Z,21.48
2019-04-22T10:06:21.141Z,21.61
2019-04-22T10:06:59.721Z,21.54
2019-04-22T10:08:12.713Z,21.64
2019-04-22T10:10:09.361Z,21.58
2019-04-22T10:11:04.779Z,21.62
2019-04-22T10:12:02.707Z,21.62
2019-04-22T10:13:04.699Z,21.57
2019-04-22T10:14:06.101Z,21.58
2019-04-22T10:14:59.818Z,21.57
2019-04-22T10:16:59.961Z,21.48
2019-04-22T10:18:03.668Z,21.73
2019-04-22T10:19:04.197Z,21.79
2019-04-22T10:20:06.782Z,21.99
2019-04-22T10:21:12.407Z,21.95
2019-04-22T10:22:08.000Z,21.83
2019-04-22T10:23:05.456Z,21.80
2019-04-22T10:24:04.795Z,21.92
2019-04-22T10:25:03.961Z,22.10
2019-04-22T10:26:16.019Z,22.04
2019-04-22T10:28:14.874Z,21.92
2019-04-22T10:29:14.012Z,21.95
2019-04-22T10:31:11.238Z,21.80
2019-04-22T10:32:07.132Z,21.82
2019-04-22T10:33:04.582Z,21.79
2019-04-22T10:33:56.062Z,21.80
2019-04-22T10:34:48.559Z,22.00
2019-04-22T10:35:43.563Z,22.06
2019-04-22T10:36:49.910Z,22.13
2019-04-22T10:37:52.172Z,22.11
2019-04-22T10:39:54.078Z,21.99
2019-04-22T10:40:47.822Z,22.10
2019-04-22T10:41:48.648Z,22.29
2019-04-22T10:42:56.843Z,22.30
2019-04-22T10:44:53.804Z,22.25
2019-04-22T10:46:02.001Z,22.18
2019-04-22T10:47:58.388Z,22.28
2019-04-22T10:49:06.430Z,22.15
2019-04-22T10:51:01.888Z,22.10
2019-04-22T10:52:02.679Z,22.17
2019-04-22T10:53:01.783Z,22.23
2019-04-22T10:54:11.357Z,22.38
2019-04-22T10:56:16.936Z,22.23
2019-04-22T10:57:06.677Z,22.36
2019-04-22T10:58:06.708Z,22.48
2019-04-22T10:59:06.806Z,22.51
2019-04-22T11:00:06.016Z,22.50
2019-04-22T11:01:15.771Z,22.45
2019-04-22T11:03:11.867Z,22.75
2019-04-22T11:04:11.205Z,22.72
2019-04-22T11:06:56.355Z,22.87
2019-04-22T11:07:53.982Z,22.90
2019-04-22T11:10:02.406Z,22.87
2019-04-22T11:11:00.408Z,22.76
2019-04-22T11:11:54.234Z,22.85
2019-04-22T11:12:47.159Z,22.78
2019-04-22T11:13:56.046Z,22.76
2019-04-22T11:16:11.649Z,22.72
2019-04-22T11:17:11.435Z,22.81
2019-04-22T11:19:05.560Z,22.78
2019-04-22T11:19:55.550Z,23.02
2019-04-22T11:21:05.397Z,22.83
2019-04-22T11:23:08.966Z,22.96
2019-04-22T11:24:00.722Z,22.94
2019-04-22T11:25:01.234Z,22.98
2019-04-22T11:25:59.820Z,22.98
2019-04-22T11:27:01.011Z,23.02
2019-04-22T11:28:00.033Z,23.12
2019-04-22T11:29:01.373Z,23.17
2019-04-22T11:30:08.525Z,23.08
2019-04-22T11:32:14.731Z,23.06
2019-04-22T11:33:04.563Z,23.08
2019-04-22T11:34:12.997Z,23.06
2019-04-22T11:36:17.867Z,22.91
2019-04-22T11:37:08.432Z,22.96
2019-04-22T11:38:08.779Z,22.98
2019-04-22T11:39:17.191Z,22.94
2019-04-22T11:41:14.786Z,23.02
2019-04-22T11:42:14.093Z,23.05
2019-04-22T11:43:22.404Z,23.12
2019-04-22T11:45:19.255Z,23.28
2019-04-22T11:47:51.080Z,23.09
2019-04-22T11:48:50.120Z,23.25
2019-04-22T11:49:59.743Z,23.28
2019-04-22T11:51:55.991Z,23.27
2019-04-22T11:53:03.129Z,23.25
2019-04-22T11:54:58.961Z,23.40
2019-04-22T11:55:58.825Z,23.37
2019-04-22T11:56:59.039Z,23.51
2019-04-22T11:57:58.896Z,23.44
2019-04-22T11:58:58.729Z,23.47
2019-04-22T11:59:58.848Z,23.58
2019-04-22T12:00:59.217Z,23.48
2019-04-22T12:01:58.640Z,23.54
2019-04-22T12:02:58.799Z,23.54
2019-04-22T12:03:59.850Z,23.51
2019-04-22T12:04:58.545Z,23.59
2019-04-22T12:05:59.751Z,23.46
2019-04-22T12:07:00.016Z,23.43
2019-04-22T12:07:59.281Z,23.54
2019-04-22T12:08:59.606Z,23.43
2019-04-22T12:09:59.579Z,23.55
2019-04-22T12:11:00.902Z,23.47
2019-04-22T12:11:58.333Z,23.51
2019-04-22T12:12:59.523Z,23.66
2019-04-22T12:13:58.268Z,23.55
2019-04-22T12:14:58.703Z,23.62
2019-04-22T12:15:59.029Z,23.71
2019-04-22T12:16:59.320Z,23.71
2019-04-22T12:17:59.245Z,23.80
2019-04-22T12:18:58.763Z,23.74
2019-04-22T12:19:58.086Z,23.68
2019-04-22T12:20:59.117Z,23.81
2019-04-22T12:21:59.115Z,23.69
2019-04-22T12:22:58.988Z,23.69
2019-04-22T12:23:59.019Z,23.55
2019-04-22T12:24:58.641Z,23.50
2019-04-22T12:26:03.439Z,23.58
2019-04-22T12:26:58.099Z,23.59
2019-04-22T12:27:59.041Z,23.69
2019-04-22T12:28:59.222Z,23.69
2019-04-22T12:29:58.773Z,23.74
2019-04-22T12:30:57.744Z,23.62
2019-04-22T12:31:57.773Z,23.63
2019-04-22T12:32:58.116Z,23.65
2019-04-22T12:33:59.194Z,23.73
2019-04-22T12:34:57.626Z,23.66
2019-04-22T12:35:57.589Z,23.77
2019-04-22T12:36:58.519Z,23.81
2019-04-22T12:38:01.298Z,23.71
2019-04-22T12:38:57.780Z,23.65
2019-04-22T12:39:58.293Z,23.71
2019-04-22T12:41:01.209Z,23.74
2019-04-22T12:41:58.357Z,23.81
2019-04-22T12:42:57.635Z,23.84
2019-04-22T12:43:58.883Z,23.88
2019-04-22T12:44:58.333Z,23.87
2019-04-22T12:45:58.275Z,23.73
2019-04-22T12:46:57.258Z,23.91
2019-04-22T12:47:57.924Z,23.93
2019-04-22T12:51:40.988Z,23.99
2019-04-22T12:52:47.881Z,24.06
2019-04-22T12:53:40.332Z,24.20
2019-04-22T12:54:40.290Z,24.10
2019-04-22T12:55:41.851Z,23.99
2019-04-22T12:56:41.782Z,24.17
2019-04-22T12:57:40.888Z,24.10
2019-04-22T12:58:41.211Z,24.23
2019-04-22T12:59:41.520Z,24.28
2019-04-22T13:00:40.417Z,24.21
2019-04-22T13:01:40.081Z,24.17
2019-04-22T13:02:40.948Z,24.06
2019-04-22T13:03:40.269Z,23.99
2019-04-22T13:04:40.561Z,24.02
2019-04-22T13:05:40.988Z,24.20
2019-04-22T13:06:41.956Z,24.16
2019-04-22T13:07:40.035Z,24.17
2019-04-22T13:08:41.241Z,24.17
2019-04-22T13:09:41.122Z,24.26
2019-04-22T13:10:49.543Z,24.16
2019-04-22T13:11:40.710Z,24.14
2019-04-22T13:12:39.753Z,24.14
2019-04-22T13:13:40.775Z,24.02
2019-04-22T13:14:40.739Z,24.17
2019-04-22T13:15:41.157Z,24.14
2019-04-22T13:16:40.719Z,24.16
2019-04-22T13:17:39.875Z,24.26
2019-04-22T13:18:47.321Z,24.21
2019-04-22T13:19:40.423Z,24.20
2019-04-22T13:20:39.539Z,24.24
2019-04-22T13:21:40.572Z,24.16
2019-04-22T13:22:40.837Z,24.14
2019-04-22T13:23:39.452Z,24.23
2019-04-22T13:24:39.701Z,24.30
2019-04-22T13:25:40.753Z,24.24
2019-04-22T13:26:41.036Z,24.24
2019-04-22T13:27:39.358Z,24.17
2019-04-22T13:28:39.276Z,24.18
2019-04-22T13:29:39.331Z,24.18
2019-04-22T13:32:18.672Z,24.20
2019-04-22T13:33:19.241Z,24.21
2019-04-22T13:34:28.304Z,24.32
2019-04-22T13:35:19.939Z,24.30
2019-04-22T13:36:21.789Z,24.11
2019-04-22T13:37:19.120Z,24.03
2019-04-22T13:38:19.251Z,24.17
2019-04-22T13:39:18.801Z,24.24
2019-04-22T13:40:19.203Z,24.17
2019-04-22T13:42:20.375Z,24.30
2019-04-22T13:43:18.788Z,24.16
2019-04-22T13:44:18.941Z,24.29
2019-04-22T13:45:18.189Z,24.32
2019-04-22T13:46:20.036Z,24.48
2019-04-22T13:47:35.084Z,24.39
2019-04-22T13:48:38.719Z,24.53
2019-04-22T13:49:49.486Z,24.43
2019-04-22T13:50:49.384Z,24.58
2019-04-22T13:52:00.988Z,24.60
2019-04-22T13:53:53.453Z,24.16
2019-04-22T13:54:19.376Z,24.61
2019-04-22T13:54:59.829Z,24.54
2019-04-22T13:55:54.720Z,24.53
2019-04-22T13:56:43.918Z,24.54
2019-04-22T13:57:42.577Z,24.43
2019-04-22T13:58:37.152Z,24.43
2019-04-22T13:59:32.230Z,24.45
2019-04-22T14:00:24.748Z,24.55
2019-04-22T14:01:23.153Z,24.57
2019-04-22T14:02:24.287Z,24.54
2019-04-22T14:03:24.538Z,24.47
2019-04-22T14:04:22.987Z,24.47
2019-04-22T14:05:24.454Z,24.40
2019-04-22T14:06:22.920Z,24.36
2019-04-22T14:07:23.174Z,24.57
2019-04-22T14:08:22.984Z,24.39
2019-04-22T14:09:24.310Z,24.51
2019-04-22T14:10:22.894Z,24.65
2019-04-22T14:11:34.550Z,24.63
2019-04-22T14:12:22.751Z,24.57
2019-04-22T14:13:23.760Z,24.58
2019-04-22T14:14:23.899Z,24.54
2019-04-22T14:15:24.230Z,24.54
2019-04-22T14:16:22.761Z,24.43
2019-04-22T14:17:23.003Z,24.43
2019-04-22T14:18:23.206Z,24.39
2019-04-22T14:19:23.648Z,24.40
2019-04-22T14:20:25.124Z,24.47
2019-04-22T14:21:22.885Z,24.60
2019-04-22T14:22:22.435Z,24.58
2019-04-22T14:23:22.619Z,24.61
2019-04-22T14:24:23.619Z,24.76
2019-04-22T14:25:22.985Z,24.81
2019-04-22T14:26:23.032Z,24.80
2019-04-22T14:27:34.707Z,24.73
2019-04-22T14:28:23.844Z,24.74
2019-04-22T14:29:22.245Z,24.77
2019-04-22T14:30:22.235Z,24.61
2019-04-22T14:31:22.413Z,24.61
2019-04-22T14:32:27.136Z,24.57
2019-04-22T14:33:22.390Z,24.61
2019-04-22T14:34:22.077Z,24.53
2019-04-22T14:35:22.992Z,24.60
2019-04-22T14:36:23.318Z,24.57
2019-04-22T14:37:22.343Z,24.53
2019-04-22T14:38:21.988Z,24.63
2019-04-22T14:39:22.042Z,24.69
2019-04-22T14:40:22.952Z,24.77
2019-04-22T14:41:40.624Z,24.70
2019-04-22T14:42:44.282Z,24.60
2019-04-22T14:44:43.034Z,24.66
2019-04-22T14:45:58.462Z,24.60
2019-04-22T14:46:50.190Z,24.70
2019-04-22T14:47:47.898Z,24.78
2019-04-22T14:48:45.823Z,24.65
2019-04-22T14:49:43.358Z,24.65
2019-04-22T14:50:41.921Z,24.55
2019-04-22T14:51:48.837Z,24.57
2019-04-22T14:52:48.875Z,24.54
2019-04-22T14:53:43.366Z,24.61
2019-04-22T14:54:34.582Z,24.60
2019-04-22T14:55:25.012Z,24.55
2019-04-22T14:56:22.441Z,24.58
2019-04-22T14:57:21.486Z,24.58
2019-04-22T14:58:22.653Z,24.48
2019-04-22T14:59:22.566Z,24.55
2019-04-22T15:00:22.017Z,24.60
2019-04-22T15:01:21.317Z,24.54
2019-04-22T15:02:21.493Z,24.50
2019-04-22T15:03:21.912Z,24.43
2019-04-22T15:04:21.306Z,24.40
2019-04-22T15:05:22.036Z,24.33